Terminal Aerodrome Forecast
Issued by NWS

Home | Current Version | Previous Version | Text Only | Print | Product List | Glossary On
Versions: 1 2 3 4 5 6 7 8 9 10 11 12
369
FTUS46 KSGX 231120
TAFSNA
TAF
KSNA 231120Z 2312/2412 VRB04KT 6SM HZ SCT008
     FM231500 18004KT 6SM BR FEW010 SCT200
     FM231900 21012KT P6SM SCT200
     FM240300 20007KT P6SM SKC
     FM241000 16005KT P6SM OVC012=

USA.gov is the U.S. government's official web portal to all federal, state and local government web resources and services.